Terminal Aerodrome Forecast
Issued by NWS Portland, ME

Home | Current Version | Previous Version | Text Only | Print | Product List | Glossary On
Versions: 1 2 3 4 5 6 7 8 9 10 11 12 13 14 15 16 17 18 19 20 21 22 23 24 25
000
FTUS41 KGYX 241250 AAC
TAFPWM
TAF AMD
KPWM 241250Z 2413/2512 11003KT P6SM BKN011
     FM241900 19010G18KT P6SM SCT050
     FM250000 20009KT P6SM FEW250=

USA.gov is the U.S. government's official web portal to all federal, state and local government web resources and services.